sensor_id;sensor_type;location;lat;lon;timestamp;P1;durP1;ratioP1;P2;durP2;ratioP2
16320;SDS011;8269;50.990;4.494;2023-05-25T00:01:23;10.80;;;5.53;;
16320;SDS011;8269;50.990;4.494;2023-05-25T00:03:50;9.77;;;5.40;;
16320;SDS011;8269;50.990;4.494;2023-05-25T00:06:19;10.07;;;5.20;;
16320;SDS011;8269;50.990;4.494;2023-05-25T00:08:45;11.83;;;5.90;;
16320;SDS011;8269;50.990;4.494;2023-05-25T00:11:11;14.03;;;5.30;;
16320;SDS011;8269;50.990;4.494;2023-05-25T00:13:38;12.07;;;5.13;;
16320;SDS011;8269;50.990;4.494;2023-05-25T00:16:03;12.63;;;5.83;;
16320;SDS011;8269;50.990;4.494;2023-05-25T00:18:30;12.47;;;5.73;;
16320;SDS011;8269;50.990;4.494;2023-05-25T00:21:01;11.23;;;5.60;;
16320;SDS011;8269;50.990;4.494;2023-05-25T00:23:30;12.17;;;5.67;;
16320;SDS011;8269;50.990;4.494;2023-05-25T00:25:56;11.10;;;5.57;;
16320;SDS011;8269;50.990;4.494;2023-05-25T00:28:22;12.00;;;5.93;;
16320;SDS011;8269;50.990;4.494;2023-05-25T00:30:48;12.40;;;5.87;;
16320;SDS011;8269;50.990;4.494;2023-05-25T00:33:14;9.93;;;5.37;;
16320;SDS011;8269;50.990;4.494;2023-05-25T00:35:41;11.27;;;5.60;;
16320;SDS011;8269;50.990;4.494;2023-05-25T00:38:16;11.40;;;5.50;;
16320;SDS011;8269;50.990;4.494;2023-05-25T00:40:42;15.37;;;5.87;;
16320;SDS011;8269;50.990;4.494;2023-05-25T00:43:08;12.97;;;5.53;;
16320;SDS011;8269;50.990;4.494;2023-05-25T00:45:35;13.10;;;5.73;;
16320;SDS011;8269;50.990;4.494;2023-05-25T00:48:01;11.43;;;5.90;;
16320;SDS011;8269;50.990;4.494;2023-05-25T00:53:00;11.70;;;5.80;;
16320;SDS011;8269;50.990;4.494;2023-05-25T00:55:26;11.73;;;5.70;;
16320;SDS011;8269;50.990;4.494;2023-05-25T00:57:54;10.30;;;6.00;;
16320;SDS011;8269;50.990;4.494;2023-05-25T01:00:22;12.73;;;6.10;;
16320;SDS011;8269;50.990;4.494;2023-05-25T01:02:48;11.90;;;7.03;;
16320;SDS011;8269;50.990;4.494;2023-05-25T01:05:16;11.13;;;6.20;;
16320;SDS011;8269;50.990;4.494;2023-05-25T01:07:45;14.63;;;6.53;;
16320;SDS011;8269;50.990;4.494;2023-05-25T01:10:11;12.83;;;6.47;;
16320;SDS011;8269;50.990;4.494;2023-05-25T01:12:39;13.20;;;6.77;;
16320;SDS011;8269;50.990;4.494;2023-05-25T01:15:08;13.10;;;6.30;;
16320;SDS011;8269;50.990;4.494;2023-05-25T01:17:34;13.23;;;6.53;;
16320;SDS011;8269;50.990;4.494;2023-05-25T01:20:03;13.27;;;6.83;;
16320;SDS011;8269;50.990;4.494;2023-05-25T01:22:36;12.00;;;6.77;;
16320;SDS011;8269;50.990;4.494;2023-05-25T01:25:13;12.60;;;6.33;;
16320;SDS011;8269;50.990;4.494;2023-05-25T01:28:30;13.73;;;6.33;;
16320;SDS011;8269;50.990;4.494;2023-05-25T01:30:42;12.13;;;6.30;;
16320;SDS011;8269;50.990;4.494;2023-05-25T01:33:10;15.00;;;6.60;;
16320;SDS011;8269;50.990;4.494;2023-05-25T01:35:36;14.90;;;7.00;;
16320;SDS011;8269;50.990;4.494;2023-05-25T01:38:04;12.10;;;6.20;;
16320;SDS011;8269;50.990;4.494;2023-05-25T01:40:29;12.67;;;6.60;;
16320;SDS011;8269;50.990;4.494;2023-05-25T01:42:55;14.40;;;7.03;;
16320;SDS011;8269;50.990;4.494;2023-05-25T01:45:21;15.00;;;7.00;;
16320;SDS011;8269;50.990;4.494;2023-05-25T01:53:21;12.60;;;6.73;;
16320;SDS011;8269;50.990;4.494;2023-05-25T01:56:00;9.73;;;6.03;;
16320;SDS011;8269;50.990;4.494;2023-05-25T01:58:31;12.50;;;6.93;;
16320;SDS011;8269;50.990;4.494;2023-05-25T02:01:02;13.23;;;7.30;;
16320;SDS011;8269;50.990;4.494;2023-05-25T02:03:28;14.40;;;7.30;;
16320;SDS011;8269;50.990;4.494;2023-05-25T02:05:54;15.00;;;7.60;;
16320;SDS011;8269;50.990;4.494;2023-05-25T02:08:21;14.63;;;7.10;;
16320;SDS011;8269;50.990;4.494;2023-05-25T02:10:47;12.80;;;7.17;;
16320;SDS011;8269;50.990;4.494;2023-05-25T02:13:13;14.00;;;7.17;;
16320;SDS011;8269;50.990;4.494;2023-05-25T02:15:39;11.77;;;7.03;;
16320;SDS011;8269;50.990;4.494;2023-05-25T02:18:04;17.13;;;7.50;;
16320;SDS011;8269;50.990;4.494;2023-05-25T02:20:30;17.40;;;7.47;;
16320;SDS011;8269;50.990;4.494;2023-05-25T02:22:56;15.60;;;7.43;;
16320;SDS011;8269;50.990;4.494;2023-05-25T02:25:22;16.73;;;7.00;;
16320;SDS011;8269;50.990;4.494;2023-05-25T02:27:47;13.00;;;7.47;;
16320;SDS011;8269;50.990;4.494;2023-05-25T02:30:14;12.17;;;7.60;;
16320;SDS011;8269;50.990;4.494;2023-05-25T02:32:39;13.60;;;7.27;;
16320;SDS011;8269;50.990;4.494;2023-05-25T02:35:05;15.10;;;8.30;;
16320;SDS011;8269;50.990;4.494;2023-05-25T02:37:31;15.33;;;7.73;;
16320;SDS011;8269;50.990;4.494;2023-05-25T02:39:57;14.07;;;7.27;;
16320;SDS011;8269;50.990;4.494;2023-05-25T02:42:23;15.87;;;7.50;;
16320;SDS011;8269;50.990;4.494;2023-05-25T02:44:48;17.70;;;8.33;;
16320;SDS011;8269;50.990;4.494;2023-05-25T02:47:14;17.50;;;7.90;;
16320;SDS011;8269;50.990;4.494;2023-05-25T02:49:41;15.83;;;8.27;;
16320;SDS011;8269;50.990;4.494;2023-05-25T02:52:07;16.40;;;8.80;;
16320;SDS011;8269;50.990;4.494;2023-05-25T02:54:33;19.53;;;9.17;;
16320;SDS011;8269;50.990;4.494;2023-05-25T02:56:59;19.83;;;8.50;;
16320;SDS011;8269;50.990;4.494;2023-05-25T02:59:26;13.97;;;8.00;;
16320;SDS011;8269;50.990;4.494;2023-05-25T03:01:52;17.47;;;8.40;;
16320;SDS011;8269;50.990;4.494;2023-05-25T03:04:18;19.57;;;8.63;;
16320;SDS011;8269;50.990;4.494;2023-05-25T03:06:43;14.37;;;8.03;;
16320;SDS011;8269;50.990;4.494;2023-05-25T03:09:09;18.07;;;8.57;;
16320;SDS011;8269;50.990;4.494;2023-05-25T03:11:35;15.27;;;7.73;;
16320;SDS011;8269;50.990;4.494;2023-05-25T03:14:01;14.93;;;7.70;;
16320;SDS011;8269;50.990;4.494;2023-05-25T03:16:26;16.30;;;8.80;;
16320;SDS011;8269;50.990;4.494;2023-05-25T03:18:52;17.83;;;8.67;;
16320;SDS011;8269;50.990;4.494;2023-05-25T03:21:18;13.83;;;8.27;;
16320;SDS011;8269;50.990;4.494;2023-05-25T03:23:46;17.10;;;8.27;;
16320;SDS011;8269;50.990;4.494;2023-05-25T03:26:12;16.83;;;8.97;;
16320;SDS011;8269;50.990;4.494;2023-05-25T03:28:38;14.83;;;8.40;;
16320;SDS011;8269;50.990;4.494;2023-05-25T03:31:03;17.60;;;8.63;;
16320;SDS011;8269;50.990;4.494;2023-05-25T03:33:29;16.70;;;9.37;;
16320;SDS011;8269;50.990;4.494;2023-05-25T03:35:54;19.90;;;9.40;;
16320;SDS011;8269;50.990;4.494;2023-05-25T03:38:20;16.90;;;9.40;;
16320;SDS011;8269;50.990;4.494;2023-05-25T03:40:46;17.47;;;9.07;;
16320;SDS011;8269;50.990;4.494;2023-05-25T03:43:11;19.13;;;9.70;;
16320;SDS011;8269;50.990;4.494;2023-05-25T03:45:37;17.20;;;9.27;;
16320;SDS011;8269;50.990;4.494;2023-05-25T03:48:03;16.33;;;9.30;;
16320;SDS011;8269;50.990;4.494;2023-05-25T03:50:29;19.20;;;8.90;;
16320;SDS011;8269;50.990;4.494;2023-05-25T03:52:54;18.27;;;8.97;;
16320;SDS011;8269;50.990;4.494;2023-05-25T03:55:20;21.87;;;9.47;;
16320;SDS011;8269;50.990;4.494;2023-05-25T03:57:45;21.73;;;8.73;;
16320;SDS011;8269;50.990;4.494;2023-05-25T04:00:11;17.60;;;8.60;;
16320;SDS011;8269;50.990;4.494;2023-05-25T04:02:38;17.07;;;9.10;;
16320;SDS011;8269;50.990;4.494;2023-05-25T04:05:03;16.90;;;9.33;;
16320;SDS011;8269;50.990;4.494;2023-05-25T04:07:29;19.50;;;9.30;;
16320;SDS011;8269;50.990;4.494;2023-05-25T04:09:55;15.67;;;8.20;;
16320;SDS011;8269;50.990;4.494;2023-05-25T04:12:23;15.50;;;8.80;;
16320;SDS011;8269;50.990;4.494;2023-05-25T04:14:49;14.93;;;8.60;;
16320;SDS011;8269;50.990;4.494;2023-05-25T04:17:16;18.30;;;8.20;;
16320;SDS011;8269;50.990;4.494;2023-05-25T04:19:43;19.73;;;8.33;;
16320;SDS011;8269;50.990;4.494;2023-05-25T04:22:08;17.73;;;8.60;;
16320;SDS011;8269;50.990;4.494;2023-05-25T04:24:34;12.90;;;7.43;;
16320;SDS011;8269;50.990;4.494;2023-05-25T04:26:59;13.07;;;7.83;;
16320;SDS011;8269;50.990;4.494;2023-05-25T04:29:26;13.10;;;7.03;;
16320;SDS011;8269;50.990;4.494;2023-05-25T04:31:52;13.88;;;7.57;;
16320;SDS011;8269;50.990;4.494;2023-05-25T04:34:18;15.82;;;6.65;;
16320;SDS011;8269;50.990;4.494;2023-05-25T04:36:45;12.10;;;6.50;;
16320;SDS011;8269;50.990;4.494;2023-05-25T04:39:13;12.73;;;7.07;;
16320;SDS011;8269;50.990;4.494;2023-05-25T04:41:39;14.03;;;6.50;;
16320;SDS011;8269;50.990;4.494;2023-05-25T04:44:07;11.32;;;6.28;;
16320;SDS011;8269;50.990;4.494;2023-05-25T04:46:32;11.20;;;5.95;;
16320;SDS011;8269;50.990;4.494;2023-05-25T04:49:01;11.35;;;6.00;;
16320;SDS011;8269;50.990;4.494;2023-05-25T04:51:28;10.73;;;6.05;;
16320;SDS011;8269;50.990;4.494;2023-05-25T04:53:54;14.68;;;6.30;;
16320;SDS011;8269;50.990;4.494;2023-05-25T04:56:19;11.38;;;6.38;;
16320;SDS011;8269;50.990;4.494;2023-05-25T04:58:51;12.45;;;5.80;;
16320;SDS011;8269;50.990;4.494;2023-05-25T05:01:17;12.73;;;6.18;;
16320;SDS011;8269;50.990;4.494;2023-05-25T05:03:46;12.65;;;6.28;;
16320;SDS011;8269;50.990;4.494;2023-05-25T05:06:11;12.73;;;6.93;;
16320;SDS011;8269;50.990;4.494;2023-05-25T05:08:37;14.65;;;6.20;;
16320;SDS011;8269;50.990;4.494;2023-05-25T05:11:02;12.95;;;6.22;;
16320;SDS011;8269;50.990;4.494;2023-05-25T05:13:28;11.18;;;5.95;;
16320;SDS011;8269;50.990;4.494;2023-05-25T05:15:54;13.80;;;6.07;;
16320;SDS011;8269;50.990;4.494;2023-05-25T05:18:19;11.95;;;6.07;;
16320;SDS011;8269;50.990;4.494;2023-05-25T05:20:45;10.00;;;6.10;;
16320;SDS011;8269;50.990;4.494;2023-05-25T05:23:11;12.50;;;5.80;;
16320;SDS011;8269;50.990;4.494;2023-05-25T05:25:37;10.98;;;5.40;;
16320;SDS011;8269;50.990;4.494;2023-05-25T05:28:03;11.23;;;5.93;;
16320;SDS011;8269;50.990;4.494;2023-05-25T05:30:28;10.75;;;5.55;;
16320;SDS011;8269;50.990;4.494;2023-05-25T05:32:54;11.88;;;6.15;;
16320;SDS011;8269;50.990;4.494;2023-05-25T05:35:20;9.60;;;5.45;;
16320;SDS011;8269;50.990;4.494;2023-05-25T05:37:46;13.05;;;5.93;;
16320;SDS011;8269;50.990;4.494;2023-05-25T05:40:12;13.57;;;5.50;;
16320;SDS011;8269;50.990;4.494;2023-05-25T05:42:38;14.13;;;5.93;;
16320;SDS011;8269;50.990;4.494;2023-05-25T05:45:08;12.27;;;6.45;;
16320;SDS011;8269;50.990;4.494;2023-05-25T05:47:34;10.15;;;5.38;;
16320;SDS011;8269;50.990;4.494;2023-05-25T05:49:59;11.25;;;5.53;;
16320;SDS011;8269;50.990;4.494;2023-05-25T05:52:25;10.80;;;5.65;;
16320;SDS011;8269;50.990;4.494;2023-05-25T05:54:51;10.75;;;5.55;;
16320;SDS011;8269;50.990;4.494;2023-05-25T05:57:16;13.48;;;6.13;;
16320;SDS011;8269;50.990;4.494;2023-05-25T05:59:42;9.82;;;5.35;;
16320;SDS011;8269;50.990;4.494;2023-05-25T06:02:07;10.10;;;4.85;;
16320;SDS011;8269;50.990;4.494;2023-05-25T06:04:33;12.80;;;5.53;;
16320;SDS011;8269;50.990;4.494;2023-05-25T06:06:59;10.25;;;5.63;;
16320;SDS011;8269;50.990;4.494;2023-05-25T06:09:24;11.32;;;5.18;;
16320;SDS011;8269;50.990;4.494;2023-05-25T06:11:50;11.85;;;5.63;;
16320;SDS011;8269;50.990;4.494;2023-05-25T06:14:16;12.60;;;5.70;;
16320;SDS011;8269;50.990;4.494;2023-05-25T06:16:42;10.95;;;5.20;;
16320;SDS011;8269;50.990;4.494;2023-05-25T06:19:08;12.15;;;5.45;;
16320;SDS011;8269;50.990;4.494;2023-05-25T06:21:33;11.15;;;5.10;;
16320;SDS011;8269;50.990;4.494;2023-05-25T06:23:59;11.88;;;5.40;;
16320;SDS011;8269;50.990;4.494;2023-05-25T06:26:25;13.75;;;5.30;;
16320;SDS011;8269;50.990;4.494;2023-05-25T06:28:51;10.98;;;5.45;;
16320;SDS011;8269;50.990;4.494;2023-05-25T06:31:16;15.90;;;6.00;;
16320;SDS011;8269;50.990;4.494;2023-05-25T06:33:42;12.07;;;5.75;;
16320;SDS011;8269;50.990;4.494;2023-05-25T06:36:08;11.27;;;5.35;;
16320;SDS011;8269;50.990;4.494;2023-05-25T06:38:35;13.85;;;5.97;;
16320;SDS011;8269;50.990;4.494;2023-05-25T06:41:00;15.40;;;5.72;;
16320;SDS011;8269;50.990;4.494;2023-05-25T06:43:28;12.18;;;5.72;;
16320;SDS011;8269;50.990;4.494;2023-05-25T06:45:56;9.52;;;5.15;;
16320;SDS011;8269;50.990;4.494;2023-05-25T06:48:22;13.13;;;5.80;;
16320;SDS011;8269;50.990;4.494;2023-05-25T06:50:47;11.43;;;6.15;;
16320;SDS011;8269;50.990;4.494;2023-05-25T06:53:13;11.52;;;5.78;;
16320;SDS011;8269;50.990;4.494;2023-05-25T06:55:39;11.57;;;5.47;;
16320;SDS011;8269;50.990;4.494;2023-05-25T06:58:05;11.38;;;5.22;;
16320;SDS011;8269;50.990;4.494;2023-05-25T07:00:31;14.55;;;5.78;;
16320;SDS011;8269;50.990;4.494;2023-05-25T07:02:56;11.50;;;4.85;;
16320;SDS011;8269;50.990;4.494;2023-05-25T07:05:22;9.73;;;4.80;;
16320;SDS011;8269;50.990;4.494;2023-05-25T07:07:47;10.50;;;5.10;;
16320;SDS011;8269;50.990;4.494;2023-05-25T07:10:13;10.63;;;5.25;;
16320;SDS011;8269;50.990;4.494;2023-05-25T07:12:39;11.98;;;5.20;;
16320;SDS011;8269;50.990;4.494;2023-05-25T07:15:05;11.82;;;5.00;;
16320;SDS011;8269;50.990;4.494;2023-05-25T07:17:32;10.82;;;4.88;;
16320;SDS011;8269;50.990;4.494;2023-05-25T07:19:57;9.50;;;4.78;;
16320;SDS011;8269;50.990;4.494;2023-05-25T07:22:24;12.15;;;4.90;;
16320;SDS011;8269;50.990;4.494;2023-05-25T07:24:49;11.20;;;5.10;;
16320;SDS011;8269;50.990;4.494;2023-05-25T07:27:15;14.35;;;5.50;;
16320;SDS011;8269;50.990;4.494;2023-05-25T07:29:41;11.50;;;5.45;;
16320;SDS011;8269;50.990;4.494;2023-05-25T07:32:07;12.32;;;5.07;;
16320;SDS011;8269;50.990;4.494;2023-05-25T07:34:33;9.95;;;4.47;;
16320;SDS011;8269;50.990;4.494;2023-05-25T07:36:58;9.98;;;4.95;;
16320;SDS011;8269;50.990;4.494;2023-05-25T07:39:24;11.98;;;5.60;;
16320;SDS011;8269;50.990;4.494;2023-05-25T07:41:50;11.13;;;4.97;;
16320;SDS011;8269;50.990;4.494;2023-05-25T07:44:15;11.63;;;5.50;;
16320;SDS011;8269;50.990;4.494;2023-05-25T07:46:41;12.93;;;5.20;;
16320;SDS011;8269;50.990;4.494;2023-05-25T07:49:07;12.13;;;4.88;;
16320;SDS011;8269;50.990;4.494;2023-05-25T07:51:37;10.98;;;5.22;;
16320;SDS011;8269;50.990;4.494;2023-05-25T07:54:03;11.98;;;5.13;;
16320;SDS011;8269;50.990;4.494;2023-05-25T07:56:28;11.40;;;4.68;;
16320;SDS011;8269;50.990;4.494;2023-05-25T07:58:54;11.13;;;4.60;;
16320;SDS011;8269;50.990;4.494;2023-05-25T08:01:20;11.40;;;5.35;;
16320;SDS011;8269;50.990;4.494;2023-05-25T08:03:47;10.63;;;4.78;;
16320;SDS011;8269;50.990;4.494;2023-05-25T08:06:12;11.23;;;4.85;;
16320;SDS011;8269;50.990;4.494;2023-05-25T08:08:38;12.65;;;5.35;;
16320;SDS011;8269;50.990;4.494;2023-05-25T08:11:05;11.02;;;4.57;;
16320;SDS011;8269;50.990;4.494;2023-05-25T08:13:32;11.98;;;4.82;;
16320;SDS011;8269;50.990;4.494;2023-05-25T08:15:57;13.38;;;5.00;;
16320;SDS011;8269;50.990;4.494;2023-05-25T08:18:23;11.98;;;5.13;;
16320;SDS011;8269;50.990;4.494;2023-05-25T08:20:48;8.98;;;4.55;;
16320;SDS011;8269;50.990;4.494;2023-05-25T08:23:15;9.20;;;4.53;;
16320;SDS011;8269;50.990;4.494;2023-05-25T08:25:41;9.90;;;4.40;;
16320;SDS011;8269;50.990;4.494;2023-05-25T08:28:07;10.50;;;4.45;;
16320;SDS011;8269;50.990;4.494;2023-05-25T08:30:33;11.60;;;4.72;;
16320;SDS011;8269;50.990;4.494;2023-05-25T08:32:58;8.85;;;4.35;;
16320;SDS011;8269;50.990;4.494;2023-05-25T08:35:24;10.10;;;4.43;;
16320;SDS011;8269;50.990;4.494;2023-05-25T08:37:50;10.48;;;4.75;;
16320;SDS011;8269;50.990;4.494;2023-05-25T08:40:16;10.90;;;4.32;;
16320;SDS011;8269;50.990;4.494;2023-05-25T08:42:46;10.32;;;4.35;;
16320;SDS011;8269;50.990;4.494;2023-05-25T08:45:12;10.23;;;4.70;;
16320;SDS011;8269;50.990;4.494;2023-05-25T08:47:41;7.80;;;3.70;;
16320;SDS011;8269;50.990;4.494;2023-05-25T08:50:08;9.73;;;4.70;;
16320;SDS011;8269;50.990;4.494;2023-05-25T08:52:34;7.97;;;3.92;;
16320;SDS011;8269;50.990;4.494;2023-05-25T08:55:03;10.55;;;4.07;;
16320;SDS011;8269;50.990;4.494;2023-05-25T08:57:33;8.18;;;3.80;;
16320;SDS011;8269;50.990;4.494;2023-05-25T09:00:08;9.98;;;4.50;;
16320;SDS011;8269;50.990;4.494;2023-05-25T09:02:38;9.15;;;4.20;;
16320;SDS011;8269;50.990;4.494;2023-05-25T09:05:13;10.70;;;4.55;;
16320;SDS011;8269;50.990;4.494;2023-05-25T09:07:41;9.88;;;4.70;;
16320;SDS011;8269;50.990;4.494;2023-05-25T09:10:08;9.30;;;3.67;;
16320;SDS011;8269;50.990;4.494;2023-05-25T09:12:35;7.70;;;3.78;;
16320;SDS011;8269;50.990;4.494;2023-05-25T09:15:02;6.95;;;3.70;;
16320;SDS011;8269;50.990;4.494;2023-05-25T09:17:28;6.82;;;3.60;;
16320;SDS011;8269;50.990;4.494;2023-05-25T09:19:54;8.60;;;4.10;;
16320;SDS011;8269;50.990;4.494;2023-05-25T09:22:20;9.05;;;4.05;;
16320;SDS011;8269;50.990;4.494;2023-05-25T09:24:46;9.70;;;4.40;;
16320;SDS011;8269;50.990;4.494;2023-05-25T09:27:15;8.65;;;4.28;;
16320;SDS011;8269;50.990;4.494;2023-05-25T09:29:43;9.50;;;3.95;;
16320;SDS011;8269;50.990;4.494;2023-05-25T09:32:12;9.18;;;3.88;;
16320;SDS011;8269;50.990;4.494;2023-05-25T09:34:38;8.45;;;3.85;;
16320;SDS011;8269;50.990;4.494;2023-05-25T09:37:22;7.93;;;3.63;;
16320;SDS011;8269;50.990;4.494;2023-05-25T09:39:49;8.15;;;3.45;;
16320;SDS011;8269;50.990;4.494;2023-05-25T09:42:15;6.80;;;3.33;;
16320;SDS011;8269;50.990;4.494;2023-05-25T09:44:41;7.00;;;3.28;;
16320;SDS011;8269;50.990;4.494;2023-05-25T09:47:07;9.52;;;4.28;;
16320;SDS011;8269;50.990;4.494;2023-05-25T09:49:34;8.25;;;4.00;;
16320;SDS011;8269;50.990;4.494;2023-05-25T09:51:59;7.90;;;3.75;;
16320;SDS011;8269;50.990;4.494;2023-05-25T09:54:26;7.07;;;3.60;;
16320;SDS011;8269;50.990;4.494;2023-05-25T09:56:51;7.20;;;3.63;;
16320;SDS011;8269;50.990;4.494;2023-05-25T09:59:18;9.05;;;3.50;;
16320;SDS011;8269;50.990;4.494;2023-05-25T10:01:44;6.70;;;3.15;;
16320;SDS011;8269;50.990;4.494;2023-05-25T10:04:17;6.75;;;3.85;;
16320;SDS011;8269;50.990;4.494;2023-05-25T10:06:43;10.80;;;3.97;;
16320;SDS011;8269;50.990;4.494;2023-05-25T10:09:13;7.47;;;3.70;;
16320;SDS011;8269;50.990;4.494;2023-05-25T10:11:42;7.93;;;3.90;;
16320;SDS011;8269;50.990;4.494;2023-05-25T10:14:09;8.35;;;3.50;;
16320;SDS011;8269;50.990;4.494;2023-05-25T10:16:38;7.38;;;3.42;;
16320;SDS011;8269;50.990;4.494;2023-05-25T10:19:09;11.45;;;4.22;;
16320;SDS011;8269;50.990;4.494;2023-05-25T10:21:42;7.10;;;3.40;;
16320;SDS011;8269;50.990;4.494;2023-05-25T10:24:38;8.30;;;3.70;;
16320;SDS011;8269;50.990;4.494;2023-05-25T10:27:21;8.10;;;3.40;;
16320;SDS011;8269;50.990;4.494;2023-05-25T10:29:48;6.82;;;3.22;;
16320;SDS011;8269;50.990;4.494;2023-05-25T10:32:16;7.35;;;3.67;;
16320;SDS011;8269;50.990;4.494;2023-05-25T10:34:42;6.47;;;3.47;;
16320;SDS011;8269;50.990;4.494;2023-05-25T10:37:08;6.90;;;3.63;;
16320;SDS011;8269;50.990;4.494;2023-05-25T10:39:35;6.82;;;3.95;;
16320;SDS011;8269;50.990;4.494;2023-05-25T10:42:01;7.85;;;3.80;;
16320;SDS011;8269;50.990;4.494;2023-05-25T10:44:28;7.80;;;4.20;;
16320;SDS011;8269;50.990;4.494;2023-05-25T10:46:54;6.35;;;3.58;;
16320;SDS011;8269;50.990;4.494;2023-05-25T10:49:32;7.78;;;3.78;;
16320;SDS011;8269;50.990;4.494;2023-05-25T10:51:58;7.30;;;3.83;;
16320;SDS011;8269;50.990;4.494;2023-05-25T10:54:28;12.07;;;3.60;;
16320;SDS011;8269;50.990;4.494;2023-05-25T10:57:11;10.50;;;4.10;;
16320;SDS011;8269;50.990;4.494;2023-05-25T10:59:47;7.65;;;3.80;;
16320;SDS011;8269;50.990;4.494;2023-05-25T11:02:14;10.05;;;3.63;;
16320;SDS011;8269;50.990;4.494;2023-05-25T11:04:40;6.28;;;3.40;;
16320;SDS011;8269;50.990;4.494;2023-05-25T11:07:06;6.20;;;3.40;;
16320;SDS011;8269;50.990;4.494;2023-05-25T11:09:39;7.80;;;3.45;;
16320;SDS011;8269;50.990;4.494;2023-05-25T11:12:07;8.57;;;4.13;;
16320;SDS011;8269;50.990;4.494;2023-05-25T11:15:07;6.57;;;3.47;;
16320;SDS011;8269;50.990;4.494;2023-05-25T11:17:45;8.25;;;4.35;;
16320;SDS011;8269;50.990;4.494;2023-05-25T11:20:25;8.48;;;4.15;;
16320;SDS011;8269;50.990;4.494;2023-05-25T11:22:52;8.57;;;4.25;;
16320;SDS011;8269;50.990;4.494;2023-05-25T11:28:06;7.72;;;4.03;;
16320;SDS011;8269;50.990;4.494;2023-05-25T11:30:35;8.88;;;4.22;;
16320;SDS011;8269;50.990;4.494;2023-05-25T11:33:04;7.50;;;4.05;;
16320;SDS011;8269;50.990;4.494;2023-05-25T11:35:31;7.53;;;3.92;;
16320;SDS011;8269;50.990;4.494;2023-05-25T11:37:58;8.45;;;4.43;;
16320;SDS011;8269;50.990;4.494;2023-05-25T11:40:24;7.88;;;4.50;;
16320;SDS011;8269;50.990;4.494;2023-05-25T11:42:55;6.63;;;4.70;;
16320;SDS011;8269;50.990;4.494;2023-05-25T11:45:26;7.85;;;3.83;;
16320;SDS011;8269;50.990;4.494;2023-05-25T11:47:53;7.45;;;4.22;;
16320;SDS011;8269;50.990;4.494;2023-05-25T11:50:18;7.30;;;4.55;;
16320;SDS011;8269;50.990;4.494;2023-05-25T11:52:45;6.35;;;4.32;;
16320;SDS011;8269;50.990;4.494;2023-05-25T11:55:11;7.88;;;4.25;;
16320;SDS011;8269;50.990;4.494;2023-05-25T11:57:38;7.07;;;3.88;;
16320;SDS011;8269;50.990;4.494;2023-05-25T12:00:04;7.65;;;4.00;;
16320;SDS011;8269;50.990;4.494;2023-05-25T12:02:38;7.28;;;4.10;;
16320;SDS011;8269;50.990;4.494;2023-05-25T12:05:05;7.35;;;3.67;;
16320;SDS011;8269;50.990;4.494;2023-05-25T12:07:32;9.25;;;3.95;;
16320;SDS011;8269;50.990;4.494;2023-05-25T12:10:05;8.82;;;4.28;;
16320;SDS011;8269;50.990;4.494;2023-05-25T12:15:10;9.05;;;4.60;;
16320;SDS011;8269;50.990;4.494;2023-05-25T12:17:43;7.47;;;4.25;;
16320;SDS011;8269;50.990;4.494;2023-05-25T12:20:09;8.40;;;3.97;;
16320;SDS011;8269;50.990;4.494;2023-05-25T12:22:39;7.78;;;4.13;;
16320;SDS011;8269;50.990;4.494;2023-05-25T12:25:09;8.93;;;4.45;;
16320;SDS011;8269;50.990;4.494;2023-05-25T12:27:36;10.02;;;4.80;;
16320;SDS011;8269;50.990;4.494;2023-05-25T12:30:03;8.60;;;4.15;;
16320;SDS011;8269;50.990;4.494;2023-05-25T12:32:30;9.65;;;4.40;;
16320;SDS011;8269;50.990;4.494;2023-05-25T12:35:02;9.48;;;3.95;;
16320;SDS011;8269;50.990;4.494;2023-05-25T12:37:33;8.13;;;4.40;;
16320;SDS011;8269;50.990;4.494;2023-05-25T12:39:59;10.05;;;4.80;;
16320;SDS011;8269;50.990;4.494;2023-05-25T12:42:25;9.85;;;4.72;;
16320;SDS011;8269;50.990;4.494;2023-05-25T12:44:54;12.07;;;4.68;;
16320;SDS011;8269;50.990;4.494;2023-05-25T12:47:25;11.18;;;4.80;;
16320;SDS011;8269;50.990;4.494;2023-05-25T12:50:13;12.43;;;5.32;;
16320;SDS011;8269;50.990;4.494;2023-05-25T12:52:43;9.52;;;4.93;;
16320;SDS011;8269;50.990;4.494;2023-05-25T12:55:29;9.60;;;5.25;;
16320;SDS011;8269;50.990;4.494;2023-05-25T13:00:29;11.00;;;5.07;;
16320;SDS011;8269;50.990;4.494;2023-05-25T13:02:56;8.48;;;5.00;;
16320;SDS011;8269;50.990;4.494;2023-05-25T13:05:23;10.95;;;4.82;;
16320;SDS011;8269;50.990;4.494;2023-05-25T13:07:50;9.38;;;4.82;;
16320;SDS011;8269;50.990;4.494;2023-05-25T13:10:17;10.88;;;5.25;;
16320;SDS011;8269;50.990;4.494;2023-05-25T13:12:43;8.02;;;4.25;;
16320;SDS011;8269;50.990;4.494;2023-05-25T13:15:09;10.05;;;5.03;;
16320;SDS011;8269;50.990;4.494;2023-05-25T13:17:35;8.13;;;4.25;;
16320;SDS011;8269;50.990;4.494;2023-05-25T13:20:02;11.85;;;4.53;;
16320;SDS011;8269;50.990;4.494;2023-05-25T13:22:28;8.93;;;4.50;;
16320;SDS011;8269;50.990;4.494;2023-05-25T13:24:54;8.77;;;4.25;;
16320;SDS011;8269;50.990;4.494;2023-05-25T13:27:20;10.18;;;4.50;;
16320;SDS011;8269;50.990;4.494;2023-05-25T13:29:46;11.05;;;4.70;;
16320;SDS011;8269;50.990;4.494;2023-05-25T13:32:11;10.35;;;4.30;;
16320;SDS011;8269;50.990;4.494;2023-05-25T13:34:37;7.47;;;4.05;;
16320;SDS011;8269;50.990;4.494;2023-05-25T13:37:03;10.55;;;3.85;;
16320;SDS011;8269;50.990;4.494;2023-05-25T13:39:33;8.98;;;4.18;;
16320;SDS011;8269;50.990;4.494;2023-05-25T13:41:59;11.27;;;4.57;;
16320;SDS011;8269;50.990;4.494;2023-05-25T13:44:24;9.55;;;4.50;;
16320;SDS011;8269;50.990;4.494;2023-05-25T13:46:50;9.32;;;4.20;;
16320;SDS011;8269;50.990;4.494;2023-05-25T13:49:16;8.73;;;4.03;;
16320;SDS011;8269;50.990;4.494;2023-05-25T13:51:43;11.43;;;4.50;;
16320;SDS011;8269;50.990;4.494;2023-05-25T13:54:09;7.97;;;4.20;;
16320;SDS011;8269;50.990;4.494;2023-05-25T13:56:36;12.35;;;4.80;;
16320;SDS011;8269;50.990;4.494;2023-05-25T13:59:03;8.68;;;3.97;;
16320;SDS011;8269;50.990;4.494;2023-05-25T14:01:28;10.45;;;4.45;;
16320;SDS011;8269;50.990;4.494;2023-05-25T14:03:56;10.57;;;4.45;;
16320;SDS011;8269;50.990;4.494;2023-05-25T14:06:23;8.73;;;4.38;;
16320;SDS011;8269;50.990;4.494;2023-05-25T14:08:49;9.50;;;4.25;;
16320;SDS011;8269;50.990;4.494;2023-05-25T14:11:15;10.95;;;4.30;;
16320;SDS011;8269;50.990;4.494;2023-05-25T14:13:41;9.32;;;4.18;;
16320;SDS011;8269;50.990;4.494;2023-05-25T14:16:07;9.30;;;4.30;;
16320;SDS011;8269;50.990;4.494;2023-05-25T14:18:33;9.27;;;4.15;;
16320;SDS011;8269;50.990;4.494;2023-05-25T14:20:59;9.88;;;4.28;;
16320;SDS011;8269;50.990;4.494;2023-05-25T14:23:24;8.48;;;4.15;;
16320;SDS011;8269;50.990;4.494;2023-05-25T14:25:50;7.63;;;4.00;;
16320;SDS011;8269;50.990;4.494;2023-05-25T14:28:16;8.38;;;4.22;;
16320;SDS011;8269;50.990;4.494;2023-05-25T14:30:42;11.35;;;4.53;;
16320;SDS011;8269;50.990;4.494;2023-05-25T14:33:07;9.90;;;4.13;;
16320;SDS011;8269;50.990;4.494;2023-05-25T14:35:38;8.73;;;4.10;;
16320;SDS011;8269;50.990;4.494;2023-05-25T14:38:04;10.40;;;4.38;;
16320;SDS011;8269;50.990;4.494;2023-05-25T14:40:30;10.77;;;4.57;;
16320;SDS011;8269;50.990;4.494;2023-05-25T14:42:55;7.50;;;3.92;;
16320;SDS011;8269;50.990;4.494;2023-05-25T14:45:21;9.20;;;4.60;;
16320;SDS011;8269;50.990;4.494;2023-05-25T14:47:47;8.95;;;4.22;;
16320;SDS011;8269;50.990;4.494;2023-05-25T14:50:12;8.15;;;4.13;;
16320;SDS011;8269;50.990;4.494;2023-05-25T14:52:39;9.27;;;4.75;;
16320;SDS011;8269;50.990;4.494;2023-05-25T14:55:05;9.27;;;4.05;;
16320;SDS011;8269;50.990;4.494;2023-05-25T14:57:36;10.02;;;4.50;;
16320;SDS011;8269;50.990;4.494;2023-05-25T15:00:02;9.73;;;4.75;;
16320;SDS011;8269;50.990;4.494;2023-05-25T15:02:29;10.02;;;4.38;;
16320;SDS011;8269;50.990;4.494;2023-05-25T15:04:54;11.60;;;4.30;;
16320;SDS011;8269;50.990;4.494;2023-05-25T15:07:20;10.05;;;4.93;;
16320;SDS011;8269;50.990;4.494;2023-05-25T15:09:46;8.18;;;4.22;;